createdAt,value
2024-01-08T00:00:38.710Z,0
2024-01-08T00:01:38.665Z,0
2024-01-08T00:02:38.726Z,0
2024-01-08T00:03:38.779Z,0
2024-01-08T00:04:38.667Z,0
2024-01-08T00:05:38.737Z,0
2024-01-08T00:06:38.698Z,0
2024-01-08T00:07:38.670Z,0
2024-01-08T00:08:38.743Z,0
2024-01-08T00:09:38.683Z,0
2024-01-08T00:10:38.811Z,0
2024-01-08T00:11:38.682Z,0
2024-01-08T00:12:38.689Z,0
2024-01-08T00:13:38.670Z,0
2024-01-08T00:14:38.655Z,0
2024-01-08T00:15:38.698Z,0
2024-01-08T00:16:38.648Z,0
2024-01-08T00:17:38.786Z,0
2024-01-08T00:18:38.763Z,0
2024-01-08T00:19:38.708Z,0
2024-01-08T00:20:38.709Z,0
2024-01-08T00:21:38.678Z,0
2024-01-08T00:22:38.697Z,0
2024-01-08T00:23:38.802Z,0
2024-01-08T00:24:38.698Z,0
2024-01-08T00:25:38.666Z,0
2024-01-08T00:26:38.741Z,0
2024-01-08T00:27:38.677Z,0
2024-01-08T00:28:38.652Z,0
2024-01-08T00:29:38.718Z,0
2024-01-08T00:30:38.676Z,0
2024-01-08T00:31:38.688Z,0
2024-01-08T00:32:38.980Z,0
2024-01-08T00:33:38.746Z,0
2024-01-08T00:34:38.682Z,0
2024-01-08T00:35:38.725Z,0
2024-01-08T00:36:38.679Z,0
2024-01-08T00:37:38.676Z,0
2024-01-08T00:38:38.729Z,0
2024-01-08T00:39:38.670Z,0
2024-01-08T00:40:38.725Z,0
2024-01-08T00:41:38.731Z,0
2024-01-08T00:42:38.707Z,0
2024-01-08T00:43:38.695Z,0
2024-01-08T00:44:38.690Z,0
2024-01-08T00:45:38.673Z,0
2024-01-08T00:46:38.684Z,0
2024-01-08T00:47:38.744Z,0
2024-01-08T00:48:38.663Z,0
2024-01-08T00:49:38.643Z,0
2024-01-08T00:50:38.747Z,0
2024-01-08T00:51:38.680Z,0
2024-01-08T00:52:38.677Z,0
2024-01-08T00:53:38.783Z,0
2024-01-08T00:54:38.648Z,0
2024-01-08T00:55:38.698Z,0
2024-01-08T00:56:38.689Z,0
2024-01-08T00:57:38.682Z,0
2024-01-08T00:58:38.638Z,0
2024-01-08T00:59:38.677Z,0
2024-01-08T01:00:38.686Z,0
2024-01-08T01:01:38.682Z,0
2024-01-08T01:02:38.745Z,0
2024-01-08T01:03:38.775Z,0
2024-01-08T01:04:38.934Z,0
2024-01-08T01:05:38.750Z,0
2024-01-08T01:06:38.646Z,0
2024-01-08T01:07:38.713Z,0
2024-01-08T01:08:38.690Z,0
2024-01-08T01:09:38.696Z,0
2024-01-08T01:10:38.666Z,0
2024-01-08T01:11:38.701Z,0
2024-01-08T01:12:38.701Z,0
2024-01-08T01:13:38.680Z,0
2024-01-08T01:14:38.699Z,0
2024-01-08T01:15:38.692Z,0
2024-01-08T01:16:38.662Z,0
2024-01-08T01:17:38.845Z,0
2024-01-08T01:18:38.750Z,0
2024-01-08T01:19:38.690Z,0
2024-01-08T01:20:38.703Z,0
2024-01-08T01:21:38.679Z,0
2024-01-08T01:22:38.674Z,0
2024-01-08T01:23:38.685Z,0
2024-01-08T01:24:38.680Z,0
2024-01-08T01:25:38.695Z,0
2024-01-08T01:26:38.735Z,0
2024-01-08T01:27:38.686Z,0
2024-01-08T01:28:38.648Z,0
2024-01-08T01:29:38.712Z,0
2024-01-08T01:30:38.696Z,0
2024-01-08T01:31:38.636Z,0
2024-01-08T01:32:38.921Z,0
2024-01-08T01:33:38.780Z,0
2024-01-08T01:34:38.670Z,0
2024-01-08T01:35:38.709Z,0
2024-01-08T01:36:38.693Z,0
2024-01-08T01:37:38.694Z,0
2024-01-08T01:38:38.689Z,0
2024-01-08T01:39:38.662Z,0
2024-01-08T01:40:38.667Z,0
2024-01-08T01:41:38.717Z,0
2024-01-08T01:42:38.667Z,0
2024-01-08T01:43:38.683Z,0
2024-01-08T01:44:38.684Z,0
2024-01-08T01:45:38.686Z,0
2024-01-08T01:46:38.662Z,0
2024-01-08T01:47:38.894Z,0
2024-01-08T01:48:38.738Z,0
2024-01-08T01:49:38.669Z,0
2024-01-08T01:50:38.715Z,0
2024-01-08T01:51:38.681Z,0
2024-01-08T01:52:38.619Z,0
2024-01-08T01:53:38.751Z,0
2024-01-08T01:54:38.658Z,0
2024-01-08T01:55:38.683Z,0
2024-01-08T01:56:38.719Z,0
2024-01-08T01:57:38.695Z,0
2024-01-08T01:58:38.619Z,0
2024-01-08T01:59:38.725Z,0
2024-01-08T02:00:38.708Z,0
2024-01-08T02:01:38.663Z,0
2024-01-08T02:02:38.843Z,0
2024-01-08T02:03:38.787Z,0
2024-01-08T02:04:38.713Z,0
2024-01-08T02:05:38.790Z,0
2024-01-08T02:06:38.697Z,0
2024-01-08T02:07:38.686Z,0
2024-01-08T02:08:38.675Z,0
2024-01-08T02:09:38.668Z,0
2024-01-08T02:10:38.670Z,0
2024-01-08T02:11:38.735Z,0
2024-01-08T02:12:38.679Z,0
2024-01-08T02:13:38.692Z,0
2024-01-08T02:14:38.708Z,0
2024-01-08T02:15:38.674Z,0
2024-01-08T02:16:38.696Z,0
2024-01-08T02:17:38.745Z,0
2024-01-08T02:18:38.752Z,0
2024-01-08T02:19:38.720Z,0
2024-01-08T02:20:38.673Z,0
2024-01-08T02:21:38.671Z,0
2024-01-08T02:22:38.684Z,0
2024-01-08T02:23:38.803Z,0
2024-01-08T02:24:38.625Z,0
2024-01-08T02:25:38.659Z,0
2024-01-08T02:26:38.794Z,0
2024-01-08T02:27:38.698Z,0
2024-01-08T02:28:38.666Z,0
2024-01-08T02:29:38.696Z,0
2024-01-08T02:30:38.709Z,0
2024-01-08T02:31:38.707Z,0
2024-01-08T02:32:38.815Z,0
2024-01-08T02:33:38.653Z,0
2024-01-08T02:34:38.723Z,0
2024-01-08T02:35:38.762Z,0
2024-01-08T02:36:38.690Z,0
2024-01-08T02:37:38.655Z,0
2024-01-08T02:38:38.715Z,0
2024-01-08T02:39:38.702Z,0
2024-01-08T02:40:38.691Z,0
2024-01-08T02:41:38.736Z,0
2024-01-08T02:42:38.686Z,0
2024-01-08T02:43:38.659Z,0
2024-01-08T02:44:38.697Z,0
2024-01-08T02:45:38.681Z,0
2024-01-08T02:46:38.682Z,0
2024-01-08T02:47:39.051Z,0
2024-01-08T02:48:38.726Z,0
2024-01-08T02:49:38.673Z,0
2024-01-08T02:50:38.713Z,0
2024-01-08T02:51:38.696Z,0
2024-01-08T02:52:38.678Z,0
2024-01-08T02:53:38.730Z,0
2024-01-08T02:54:38.681Z,0
2024-01-08T02:55:38.713Z,0
2024-01-08T02:56:38.728Z,0
2024-01-08T02:57:38.701Z,0
2024-01-08T02:58:38.686Z,0
2024-01-08T02:59:38.732Z,0
2024-01-08T03:00:38.745Z,0
2024-01-08T03:01:38.634Z,0
2024-01-08T03:02:38.716Z,0
2024-01-08T03:03:38.730Z,0
2024-01-08T03:04:38.685Z,0
2024-01-08T03:05:38.706Z,0
2024-01-08T03:06:38.747Z,0
2024-01-08T03:07:38.688Z,0
2024-01-08T03:08:38.706Z,0
2024-01-08T03:09:38.689Z,0
2024-01-08T03:10:38.701Z,0
2024-01-08T03:11:38.713Z,0
2024-01-08T03:12:38.706Z,0
2024-01-08T03:13:38.676Z,0
2024-01-08T03:14:38.721Z,0
2024-01-08T03:15:38.681Z,0
2024-01-08T03:16:38.679Z,0
2024-01-08T03:17:38.736Z,0
2024-01-08T03:18:40.400Z,0
2024-01-08T03:19:38.717Z,0
2024-01-08T03:20:38.861Z,0
2024-01-08T03:21:38.687Z,0
2024-01-08T03:22:38.686Z,0
2024-01-08T03:23:38.740Z,0
2024-01-08T03:24:38.690Z,0
2024-01-08T03:25:38.715Z,0
2024-01-08T03:26:38.792Z,0
2024-01-08T03:27:38.710Z,0
2024-01-08T03:28:38.707Z,0
2024-01-08T03:29:38.746Z,0
2024-01-08T03:30:38.714Z,0
2024-01-08T03:31:38.700Z,0
2024-01-08T03:32:38.761Z,0
2024-01-08T03:33:38.758Z,0
2024-01-08T03:34:38.693Z,0
2024-01-08T03:35:38.702Z,0
2024-01-08T03:36:38.672Z,0
2024-01-08T03:37:38.680Z,0
2024-01-08T03:38:38.717Z,0
2024-01-08T03:39:38.697Z,0
2024-01-08T03:40:38.664Z,0
2024-01-08T03:41:38.706Z,0
2024-01-08T03:42:38.686Z,0
2024-01-08T03:43:38.696Z,0
2024-01-08T03:44:38.743Z,0
2024-01-08T03:45:38.680Z,0
2024-01-08T03:46:38.718Z,0
2024-01-08T03:47:38.796Z,0
2024-01-08T03:48:38.684Z,0
2024-01-08T03:49:38.695Z,0
2024-01-08T03:50:38.689Z,0
2024-01-08T03:51:38.682Z,0
2024-01-08T03:52:38.707Z,0
2024-01-08T03:53:38.841Z,0
2024-01-08T03:54:38.678Z,0
2024-01-08T03:55:38.699Z,0
2024-01-08T03:56:38.796Z,0
2024-01-08T03:57:38.691Z,0
2024-01-08T03:58:38.697Z,0
2024-01-08T03:59:38.690Z,0
2024-01-08T04:00:38.713Z,0
2024-01-08T04:01:38.710Z,0
2024-01-08T04:02:38.783Z,0
2024-01-08T04:03:38.702Z,0
2024-01-08T04:04:38.710Z,0
2024-01-08T04:05:38.821Z,0
2024-01-08T04:06:38.692Z,0
2024-01-08T04:07:38.702Z,0
2024-01-08T04:08:38.716Z,0
2024-01-08T04:09:38.676Z,0
2024-01-08T04:10:38.672Z,0
2024-01-08T04:11:38.690Z,0
2024-01-08T04:12:38.681Z,0
2024-01-08T04:13:38.730Z,0
2024-01-08T04:14:38.938Z,0
2024-01-08T04:15:38.678Z,0
2024-01-08T04:16:38.700Z,0
2024-01-08T04:17:38.926Z,0
2024-01-08T04:18:38.741Z,0
2024-01-08T04:19:38.702Z,0
2024-01-08T04:20:38.771Z,0
2024-01-08T04:21:38.697Z,0
2024-01-08T04:22:38.747Z,0
2024-01-08T04:23:38.786Z,0
2024-01-08T04:24:38.672Z,0
2024-01-08T04:25:38.694Z,0
2024-01-08T04:26:38.687Z,0
2024-01-08T04:27:38.687Z,0
2024-01-08T04:28:38.657Z,0
2024-01-08T04:29:38.708Z,0
2024-01-08T04:30:38.703Z,0
2024-01-08T04:31:38.705Z,0
2024-01-08T04:32:38.733Z,0
2024-01-08T04:33:38.747Z,0
2024-01-08T04:34:38.663Z,0
2024-01-08T04:35:38.688Z,0
2024-01-08T04:36:38.687Z,0
2024-01-08T04:37:38.659Z,0
2024-01-08T04:38:38.742Z,0
2024-01-08T04:39:38.690Z,0
2024-01-08T04:40:38.692Z,0
2024-01-08T04:41:39.968Z,0
2024-01-08T04:42:38.674Z,0
2024-01-08T04:43:38.686Z,0
2024-01-08T04:44:38.889Z,0
2024-01-08T04:45:38.692Z,0
2024-01-08T04:46:38.694Z,0
2024-01-08T04:47:38.860Z,0
2024-01-08T04:48:38.799Z,0
2024-01-08T04:49:38.673Z,0
2024-01-08T04:50:38.792Z,0
2024-01-08T04:51:38.707Z,0
2024-01-08T04:52:38.684Z,0
2024-01-08T04:53:38.715Z,0
2024-01-08T04:54:38.685Z,0
2024-01-08T04:55:39.675Z,0
2024-01-08T04:56:38.688Z,0
2024-01-08T04:57:38.673Z,0
2024-01-08T04:58:38.664Z,0
2024-01-08T04:59:38.699Z,0
2024-01-08T05:00:38.695Z,0
2024-01-08T05:01:38.735Z,0
2024-01-08T05:02:38.695Z,0
2024-01-08T05:03:38.750Z,0
2024-01-08T05:04:38.701Z,0
2024-01-08T05:05:38.813Z,0
2024-01-08T05:06:38.760Z,0
2024-01-08T05:07:38.673Z,0
2024-01-08T05:08:38.683Z,0
2024-01-08T05:09:38.701Z,0
2024-01-08T05:10:38.630Z,0
2024-01-08T05:11:38.847Z,0
2024-01-08T05:12:38.678Z,0
2024-01-08T05:13:38.694Z,0
2024-01-08T05:14:38.668Z,0
2024-01-08T05:15:38.683Z,0
2024-01-08T05:16:38.682Z,0
2024-01-08T05:17:38.880Z,0
2024-01-08T05:18:38.831Z,0
2024-01-08T05:19:38.754Z,0
2024-01-08T05:20:38.749Z,0
2024-01-08T05:21:38.649Z,0
2024-01-08T05:22:38.687Z,0
2024-01-08T05:23:38.813Z,0
2024-01-08T05:24:38.678Z,0
2024-01-08T05:25:38.683Z,0
2024-01-08T05:26:38.818Z,0
2024-01-08T05:27:38.677Z,0
2024-01-08T05:28:38.670Z,0
2024-01-08T05:29:38.705Z,0
2024-01-08T05:30:38.724Z,0
2024-01-08T05:31:38.659Z,0
2024-01-08T05:32:38.758Z,0
2024-01-08T05:33:38.776Z,0
2024-01-08T05:34:38.783Z,0
2024-01-08T05:35:38.825Z,0
2024-01-08T05:36:38.667Z,0
2024-01-08T05:37:38.666Z,0
2024-01-08T05:38:38.685Z,0
2024-01-08T05:39:38.688Z,0
2024-01-08T05:40:38.689Z,0
2024-01-08T05:41:38.747Z,0
2024-01-08T05:42:38.731Z,0
2024-01-08T05:43:38.687Z,0
2024-01-08T05:44:38.734Z,0
2024-01-08T05:45:38.693Z,0
2024-01-08T05:46:38.685Z,0
2024-01-08T05:47:38.802Z,0
2024-01-08T05:48:38.929Z,0
2024-01-08T05:49:38.687Z,0
2024-01-08T05:50:38.702Z,0
2024-01-08T05:51:38.690Z,0
2024-01-08T05:52:38.668Z,0
2024-01-08T05:53:38.727Z,0
2024-01-08T05:54:38.692Z,0
2024-01-08T05:55:38.672Z,0
2024-01-08T05:56:38.882Z,0
2024-01-08T05:57:38.694Z,0
2024-01-08T05:58:38.682Z,0
2024-01-08T05:59:41.914Z,0
2024-01-08T06:00:38.780Z,0
2024-01-08T06:01:38.682Z,0
2024-01-08T06:02:38.768Z,0
2024-01-08T06:03:38.724Z,0
2024-01-08T06:04:38.685Z,0
2024-01-08T06:05:38.756Z,0
2024-01-08T06:06:38.724Z,0
2024-01-08T06:07:38.699Z,0
2024-01-08T06:08:38.687Z,0
2024-01-08T06:09:38.689Z,0
2024-01-08T06:10:38.688Z,0
2024-01-08T06:11:38.783Z,0
2024-01-08T06:12:38.667Z,0
2024-01-08T06:13:38.713Z,0
2024-01-08T06:14:38.783Z,0
2024-01-08T06:15:38.684Z,0
2024-01-08T06:16:38.655Z,0
2024-01-08T06:17:40.448Z,0
2024-01-08T06:18:38.746Z,0
2024-01-08T06:19:38.725Z,0
2024-01-08T06:20:38.754Z,0
2024-01-08T06:21:38.681Z,0
2024-01-08T06:22:38.671Z,0
2024-01-08T06:23:38.800Z,0
2024-01-08T06:24:38.669Z,0
2024-01-08T06:25:38.682Z,0
2024-01-08T06:26:38.723Z,0
2024-01-08T06:27:38.654Z,0
2024-01-08T06:28:38.661Z,0
2024-01-08T06:29:38.695Z,0
2024-01-08T06:30:38.712Z,0
2024-01-08T06:31:38.700Z,0
2024-01-08T06:32:38.809Z,0
2024-01-08T06:33:38.739Z,0
2024-01-08T06:34:38.721Z,0
2024-01-08T06:35:38.751Z,0
2024-01-08T06:36:38.680Z,0
2024-01-08T06:37:38.688Z,0
2024-01-08T06:38:38.760Z,0
2024-01-08T06:39:38.704Z,0
2024-01-08T06:40:38.657Z,0
2024-01-08T06:41:38.781Z,0
2024-01-08T06:42:51.904Z,0
2024-01-08T06:43:38.690Z,0
2024-01-08T06:44:38.717Z,0
2024-01-08T06:45:38.672Z,0
2024-01-08T06:46:38.669Z,0
2024-01-08T06:47:38.724Z,0
2024-01-08T06:48:38.768Z,0
2024-01-08T06:49:38.697Z,0
2024-01-08T06:50:38.787Z,0.1
2024-01-08T06:51:38.689Z,0.1
2024-01-08T06:52:41.893Z,0.1
2024-01-08T06:53:38.719Z,0.1
2024-01-08T06:54:38.682Z,0.1
2024-01-08T06:55:38.632Z,0.1
2024-01-08T06:56:38.738Z,0.1
2024-01-08T06:57:38.678Z,0.1
2024-01-08T06:58:38.688Z,0.1
2024-01-08T06:59:38.720Z,0.1
2024-01-08T07:00:38.721Z,0.1
2024-01-08T07:01:38.702Z,0.1
2024-01-08T07:02:38.710Z,0.1
2024-01-08T07:03:38.712Z,0.1
2024-01-08T07:04:38.688Z,0.1
2024-01-08T07:05:39.591Z,0.1
2024-01-08T07:06:38.817Z,0.1
2024-01-08T07:07:38.708Z,0.1
2024-01-08T07:08:38.728Z,0.2
2024-01-08T07:09:41.004Z,0.2
2024-01-08T07:10:38.689Z,0.2
2024-01-08T07:11:38.742Z,0.2
2024-01-08T07:12:38.705Z,0.2
2024-01-08T07:13:38.671Z,0.2
2024-01-08T07:14:38.721Z,0.2
2024-01-08T07:15:38.681Z,0.3
2024-01-08T07:16:38.836Z,0.2
2024-01-08T07:17:38.761Z,0.2
2024-01-08T07:18:38.782Z,0.2
2024-01-08T07:19:38.714Z,0.3
2024-01-08T07:20:38.764Z,0.3
2024-01-08T07:21:38.673Z,0.3
2024-01-08T07:22:38.688Z,0.3
2024-01-08T07:23:38.786Z,0.3
2024-01-08T07:24:38.705Z,0.3
2024-01-08T07:25:38.694Z,0.4
2024-01-08T07:26:38.735Z,0.3
2024-01-08T07:27:38.670Z,0.3
2024-01-08T07:28:38.692Z,0.3
2024-01-08T07:29:38.752Z,0.3
2024-01-08T07:30:38.800Z,0.3
2024-01-08T07:31:38.694Z,0.3
2024-01-08T07:32:40.261Z,0.3
2024-01-08T07:33:38.737Z,0.3
2024-01-08T07:34:38.725Z,0.3
2024-01-08T07:35:38.756Z,0.4
2024-01-08T07:36:38.680Z,0.4
2024-01-08T07:37:38.675Z,0.3
2024-01-08T07:38:38.878Z,0.4
2024-01-08T07:39:38.668Z,0.4
2024-01-08T07:40:38.661Z,0.4
2024-01-08T07:41:38.763Z,0.5
2024-01-08T07:42:38.679Z,0.5
2024-01-08T07:43:38.866Z,0.5
2024-01-08T07:44:38.787Z,0.5
2024-01-08T07:45:38.687Z,0.6
2024-01-08T07:46:38.669Z,0.6
2024-01-08T07:47:38.853Z,0.6
2024-01-08T07:48:38.798Z,0.6
2024-01-08T07:49:38.676Z,0.6
2024-01-08T07:50:38.711Z,0.7
2024-01-08T07:51:38.671Z,0.6
2024-01-08T07:52:41.413Z,0.5
2024-01-08T07:53:38.717Z,0.6
2024-01-08T07:54:38.697Z,0.6
2024-01-08T07:55:38.671Z,0.5
2024-01-08T07:56:45.846Z,0.5
2024-01-08T07:57:38.669Z,0.5
2024-01-08T07:58:42.242Z,0.6
2024-01-08T07:59:38.811Z,0.6
2024-01-08T08:00:38.634Z,0.7
2024-01-08T08:01:38.680Z,0.7
2024-01-08T08:02:38.725Z,0.6
2024-01-08T08:03:38.789Z,0.7
2024-01-08T08:04:38.764Z,0.8
2024-01-08T08:05:38.785Z,0.8
2024-01-08T08:06:40.056Z,0.8
2024-01-08T08:07:38.682Z,0.9
2024-01-08T08:08:38.718Z,0.8
2024-01-08T08:09:38.693Z,0.8
2024-01-08T08:10:38.682Z,0.7
2024-01-08T08:11:38.816Z,0.8
2024-01-08T08:12:38.673Z,0.8
2024-01-08T08:13:38.696Z,0.8
2024-01-08T08:14:38.762Z,0.9
2024-01-08T08:15:38.647Z,0.9
2024-01-08T08:16:38.691Z,0.8
2024-01-08T08:17:38.769Z,0.8
2024-01-08T08:18:38.715Z,0.9
2024-01-08T08:19:38.680Z,0.8
2024-01-08T08:20:38.780Z,1.1
2024-01-08T08:21:38.703Z,1.1
2024-01-08T08:22:41.951Z,1
2024-01-08T08:23:38.712Z,0.8
2024-01-08T08:24:38.672Z,1.2
2024-01-08T08:25:38.704Z,1
2024-01-08T08:26:38.721Z,1.1
2024-01-08T08:27:38.676Z,1.2
2024-01-08T08:28:38.675Z,1.1
2024-01-08T08:29:38.724Z,1
2024-01-08T08:30:39.021Z,1
2024-01-08T08:31:38.699Z,1
2024-01-08T08:32:38.744Z,1.1
2024-01-08T08:33:38.767Z,1.1
2024-01-08T08:34:38.811Z,1.3
2024-01-08T08:35:38.721Z,1.4
2024-01-08T08:36:38.684Z,1.3
2024-01-08T08:37:48.404Z,1.5
2024-01-08T08:38:41.520Z,1.3
2024-01-08T08:39:38.678Z,1.3
2024-01-08T08:40:38.684Z,1.4
2024-01-08T08:41:38.784Z,1.4
2024-01-08T08:42:38.689Z,1.2
2024-01-08T08:43:38.703Z,1.4
2024-01-08T08:44:38.780Z,1.5
2024-01-08T08:45:38.706Z,1.4
2024-01-08T08:46:38.696Z,1.3
2024-01-08T08:47:38.791Z,1.4
2024-01-08T08:48:38.788Z,1.4
2024-01-08T08:49:38.732Z,1.4
2024-01-08T08:50:38.738Z,1.5
2024-01-08T08:51:38.685Z,1.4
2024-01-08T08:52:38.690Z,1.5
2024-01-08T08:53:38.869Z,1.5
2024-01-08T08:54:38.698Z,1.5
2024-01-08T08:55:38.688Z,1.6
2024-01-08T08:56:38.788Z,1.8
2024-01-08T08:57:38.861Z,1.8
2024-01-08T08:58:38.662Z,1.8
2024-01-08T08:59:38.959Z,1.9
2024-01-08T09:00:38.716Z,1.6
2024-01-08T09:01:38.707Z,1.7
2024-01-08T09:02:39.011Z,1.7
2024-01-08T09:03:40.550Z,1.9
2024-01-08T09:04:38.750Z,1.1
2024-01-08T09:05:43.642Z,1.3
2024-01-08T09:06:38.804Z,1
2024-01-08T09:07:38.684Z,1.8
2024-01-08T09:08:38.897Z,2
2024-01-08T09:09:38.692Z,2.2
2024-01-08T09:10:38.685Z,2.2
2024-01-08T09:11:38.843Z,2.3
2024-01-08T09:12:38.685Z,2.1
2024-01-08T09:13:38.670Z,2.1
2024-01-08T09:14:38.801Z,2.1
2024-01-08T09:15:38.647Z,2.2
2024-01-08T09:16:38.618Z,2.2
2024-01-08T09:17:38.705Z,2.3
2024-01-08T09:18:38.797Z,2.2
2024-01-08T09:19:38.649Z,2.4
2024-01-08T09:20:38.874Z,2.3
2024-01-08T09:21:38.681Z,2.3
2024-01-08T09:22:38.688Z,2.4
2024-01-08T09:23:38.717Z,2.7
2024-01-08T09:24:38.718Z,2.8
2024-01-08T09:25:38.679Z,2.7
2024-01-08T09:26:38.719Z,3.1
2024-01-08T09:27:38.667Z,2.9
2024-01-08T09:28:38.692Z,3
2024-01-08T09:29:38.797Z,3
2024-01-08T09:30:38.684Z,3
2024-01-08T09:31:38.753Z,2.8
2024-01-08T09:32:38.950Z,2.9
2024-01-08T09:33:38.753Z,2.8
2024-01-08T09:34:38.676Z,2.5
2024-01-08T09:35:38.727Z,2.5
2024-01-08T09:36:38.658Z,2.9
2024-01-08T09:37:38.723Z,2.7
2024-01-08T09:38:38.727Z,3
2024-01-08T09:39:38.671Z,2.9
2024-01-08T09:40:38.657Z,3.2
2024-01-08T09:41:38.711Z,3
2024-01-08T09:42:38.694Z,2.9
2024-01-08T09:43:38.684Z,2.8
2024-01-08T09:44:38.834Z,2.9
2024-01-08T09:45:38.683Z,3
2024-01-08T09:46:38.654Z,2.9
2024-01-08T09:47:38.770Z,3.1
2024-01-08T09:48:38.743Z,2.7
2024-01-08T09:49:38.824Z,2.8
2024-01-08T09:50:38.835Z,2.9
2024-01-08T09:51:38.692Z,2.7
2024-01-08T09:52:42.195Z,2.6
2024-01-08T09:53:38.699Z,2.6
2024-01-08T09:54:38.669Z,2.6
2024-01-08T09:55:38.681Z,2.3
2024-01-08T09:56:38.864Z,2.4
2024-01-08T09:57:38.704Z,2.4
2024-01-08T09:58:38.704Z,2.2
2024-01-08T09:59:38.869Z,2.3
2024-01-08T10:00:38.724Z,2.1
2024-01-08T10:01:41.315Z,2.1
2024-01-08T10:02:38.774Z,2
2024-01-08T10:03:38.680Z,1.9
2024-01-08T10:04:38.700Z,1.9
2024-01-08T10:05:38.751Z,1.8
2024-01-08T10:06:38.743Z,1.6
2024-01-08T10:07:38.720Z,1.8
2024-01-08T10:08:38.889Z,2
2024-01-08T10:09:38.707Z,2
2024-01-08T10:10:38.697Z,1.9
2024-01-08T10:11:38.798Z,2.1
2024-01-08T10:12:38.693Z,2.2
2024-01-08T10:13:38.765Z,2
2024-01-08T10:14:38.840Z,2.2
2024-01-08T10:15:38.740Z,2.4
2024-01-08T10:16:50.414Z,2.1
2024-01-08T10:17:39.005Z,1.8
2024-01-08T10:18:39.033Z,2.1
2024-01-08T10:19:38.828Z,2.1
2024-01-08T10:20:38.768Z,2.1
2024-01-08T10:21:38.698Z,2.3
2024-01-08T10:22:38.869Z,2.3
2024-01-08T10:23:38.850Z,2
2024-01-08T10:24:38.659Z,1.9
2024-01-08T10:25:38.684Z,2.1
2024-01-08T10:26:38.748Z,2
2024-01-08T10:27:38.699Z,2
2024-01-08T10:28:38.783Z,1.9
2024-01-08T10:29:38.879Z,1.7
2024-01-08T10:30:38.766Z,2
2024-01-08T10:31:38.752Z,2.1
2024-01-08T10:32:38.936Z,2.1
2024-01-08T10:33:38.937Z,2.1
2024-01-08T10:34:38.730Z,2
2024-01-08T10:35:38.685Z,1.9
2024-01-08T10:36:38.752Z,1.9
2024-01-08T10:37:38.823Z,1.9
2024-01-08T10:38:38.868Z,1.7
2024-01-08T10:39:47.198Z,1.9
2024-01-08T10:40:38.733Z,1.9
2024-01-08T10:41:38.837Z,1.8
2024-01-08T10:42:38.691Z,2
2024-01-08T10:43:38.795Z,1.8
2024-01-08T10:44:38.770Z,1.9
2024-01-08T10:45:38.662Z,1.9
2024-01-08T10:46:38.668Z,1.7
2024-01-08T10:47:38.781Z,1.8
2024-01-08T10:48:38.810Z,1.8
2024-01-08T10:49:38.733Z,1.7
2024-01-08T10:50:38.693Z,1.8
2024-01-08T10:51:38.693Z,1.9
2024-01-08T10:52:38.702Z,1.9
2024-01-08T10:53:38.754Z,2
2024-01-08T10:54:38.691Z,2
2024-01-08T10:55:38.643Z,2
2024-01-08T10:56:38.697Z,1.7
2024-01-08T10:57:38.703Z,1.6
2024-01-08T10:58:38.711Z,1.7
2024-01-08T10:59:38.764Z,1.8
2024-01-08T11:00:38.711Z,2.1
2024-01-08T11:01:38.691Z,2.1
2024-01-08T11:02:38.876Z,2.1
2024-01-08T11:03:38.731Z,2.1
2024-01-08T11:04:38.690Z,2.2
2024-01-08T11:05:38.759Z,2.3
2024-01-08T11:06:41.351Z,2.3
2024-01-08T11:07:38.669Z,2.3
2024-01-08T11:08:38.777Z,2.3
2024-01-08T11:09:38.655Z,2.3
2024-01-08T11:10:38.698Z,2.3
2024-01-08T11:11:38.789Z,2.4
2024-01-08T11:12:38.703Z,2.4
2024-01-08T11:13:38.691Z,2.3
2024-01-08T11:14:38.812Z,2.6
2024-01-08T11:15:38.688Z,2.8
2024-01-08T11:16:38.662Z,2.8
2024-01-08T11:17:38.748Z,2.6
2024-01-08T11:18:38.779Z,2.4
2024-01-08T11:19:38.732Z,2.2
2024-01-08T11:20:38.781Z,2.6
2024-01-08T11:21:38.660Z,2.8
2024-01-08T11:22:39.081Z,2.6
2024-01-08T11:23:38.777Z,2.5
2024-01-08T11:24:38.634Z,2.6
2024-01-08T11:25:38.694Z,2.6
2024-01-08T11:26:38.714Z,2.5
2024-01-08T11:27:38.665Z,2.5
2024-01-08T11:28:38.670Z,2.5
2024-01-08T11:29:38.684Z,2.5
2024-01-08T11:30:38.703Z,2.7
2024-01-08T11:31:38.683Z,2.9
2024-01-08T11:32:38.785Z,3
2024-01-08T11:33:38.838Z,2.9
2024-01-08T11:34:38.751Z,2.9
2024-01-08T11:35:38.747Z,3.2
2024-01-08T11:36:38.678Z,3.4
2024-01-08T11:37:38.743Z,3.4
2024-01-08T11:38:38.875Z,3.4
2024-01-08T11:39:38.675Z,3.4
2024-01-08T11:40:38.703Z,3.3
2024-01-08T11:41:38.671Z,3.3
2024-01-08T11:42:38.687Z,3.4
2024-01-08T11:43:38.680Z,3.2
2024-01-08T11:44:38.759Z,3.2
2024-01-08T11:45:38.633Z,3.5
2024-01-08T11:46:38.691Z,3.9
2024-01-08T11:47:38.879Z,4
2024-01-08T11:48:38.786Z,3.9
2024-01-08T11:49:38.702Z,3.8
2024-01-08T11:50:38.740Z,3.8
2024-01-08T11:51:38.693Z,3.9
2024-01-08T11:52:38.690Z,3.9
2024-01-08T11:53:38.700Z,4
2024-01-08T11:54:38.708Z,4.2
2024-01-08T11:55:38.687Z,4.1
2024-01-08T11:56:38.748Z,4
2024-01-08T11:57:38.678Z,3.9
2024-01-08T11:58:38.671Z,4.1
2024-01-08T11:59:38.732Z,4.1
2024-01-08T12:00:38.732Z,4
2024-01-08T12:01:38.685Z,4.1
2024-01-08T12:02:38.783Z,4.1
2024-01-08T12:03:38.787Z,4.3
2024-01-08T12:04:38.691Z,4.4
2024-01-08T12:05:38.834Z,4.2
2024-01-08T12:06:38.794Z,4.3
2024-01-08T12:07:38.696Z,4.3
2024-01-08T12:08:38.695Z,4.3
2024-01-08T12:09:38.634Z,3.6
2024-01-08T12:10:38.700Z,3.3
2024-01-08T12:11:38.700Z,4
2024-01-08T12:12:38.635Z,4
2024-01-08T12:13:38.673Z,4.5
2024-01-08T12:14:38.737Z,4.2
2024-01-08T12:15:38.611Z,4
2024-01-08T12:16:40.608Z,3.5
2024-01-08T12:17:38.853Z,3.5
2024-01-08T12:18:38.807Z,3.5
2024-01-08T12:19:38.697Z,3.6
2024-01-08T12:20:38.696Z,3.6
2024-01-08T12:21:45.739Z,3.5
2024-01-08T12:22:38.664Z,3.7
2024-01-08T12:23:38.713Z,3.5
2024-01-08T12:24:38.654Z,3.4
2024-01-08T12:25:38.660Z,3.6
2024-01-08T12:26:38.682Z,3.8
2024-01-08T12:27:38.688Z,3.6
2024-01-08T12:28:38.630Z,3.3
2024-01-08T12:29:38.683Z,3.1
2024-01-08T12:30:38.695Z,3
2024-01-08T12:31:38.944Z,2.9
2024-01-08T12:32:38.806Z,2.8
2024-01-08T12:33:38.760Z,3
2024-01-08T12:34:38.723Z,3.3
2024-01-08T12:35:38.705Z,3.5
2024-01-08T12:36:38.678Z,3.6
2024-01-08T12:37:38.655Z,3.7
2024-01-08T12:38:38.646Z,3.5
2024-01-08T12:39:38.644Z,3.3
2024-01-08T12:40:38.671Z,3.2
2024-01-08T12:41:38.779Z,3.2
2024-01-08T12:42:38.715Z,3.3
2024-01-08T12:43:38.668Z,3.5
2024-01-08T12:44:38.826Z,3.5
2024-01-08T12:45:38.661Z,3.5
2024-01-08T12:46:38.684Z,3.5
2024-01-08T12:47:38.862Z,3.4
2024-01-08T12:48:38.826Z,3.4
2024-01-08T12:49:38.740Z,3.4
2024-01-08T12:50:38.693Z,3.4
2024-01-08T12:51:38.689Z,3.1
2024-01-08T12:52:38.703Z,2.9
2024-01-08T12:53:38.772Z,3.1
2024-01-08T12:54:38.648Z,3.4
2024-01-08T12:55:38.691Z,3.4
2024-01-08T12:56:38.781Z,3.2
2024-01-08T12:57:38.667Z,3.1
2024-01-08T12:58:38.699Z,3.1
2024-01-08T12:59:38.730Z,3
2024-01-08T13:00:38.716Z,3
2024-01-08T13:01:38.677Z,3
2024-01-08T13:02:38.751Z,3
2024-01-08T13:03:38.690Z,3.1
2024-01-08T13:04:38.687Z,3.2
2024-01-08T13:05:38.662Z,2.9
2024-01-08T13:06:38.680Z,2.7
2024-01-08T13:07:38.681Z,2.8
2024-01-08T13:08:38.676Z,3.1
2024-01-08T13:09:38.682Z,3.1
2024-01-08T13:10:38.688Z,3.1
2024-01-08T13:11:38.705Z,3.2
2024-01-08T13:12:38.689Z,3.4
2024-01-08T13:13:38.686Z,3.5
2024-01-08T13:14:38.987Z,3.4
2024-01-08T13:15:38.699Z,3.4
2024-01-08T13:16:38.647Z,3.2
2024-01-08T13:17:38.792Z,3.2
2024-01-08T13:18:38.710Z,3.3
2024-01-08T13:19:38.762Z,3.3
2024-01-08T13:20:38.720Z,3
2024-01-08T13:21:38.682Z,3.2
2024-01-08T13:22:41.672Z,3.1
2024-01-08T13:23:38.824Z,2.9
2024-01-08T13:24:38.693Z,2.8
2024-01-08T13:25:38.689Z,2.6
2024-01-08T13:26:38.814Z,2.6
2024-01-08T13:27:38.690Z,2.8
2024-01-08T13:28:38.820Z,3.2
2024-01-08T13:29:38.735Z,3.4
2024-01-08T13:30:38.697Z,3.3
2024-01-08T13:31:38.682Z,3.4
2024-01-08T13:32:38.785Z,3.2
2024-01-08T13:33:38.737Z,2.8
2024-01-08T13:34:38.713Z,2.7
2024-01-08T13:35:38.714Z,2.9
2024-01-08T13:36:38.713Z,3
2024-01-08T13:37:38.689Z,2.9
2024-01-08T13:38:38.705Z,2.9
2024-01-08T13:39:38.689Z,2.8
2024-01-08T13:40:38.694Z,2.9
2024-01-08T13:41:38.699Z,2.8
2024-01-08T13:42:38.682Z,2.7
2024-01-08T13:43:38.684Z,2.6
2024-01-08T13:44:38.785Z,2.7
2024-01-08T13:45:38.644Z,2.8
2024-01-08T13:46:38.776Z,2.8
2024-01-08T13:47:38.894Z,2.8
2024-01-08T13:48:38.809Z,2.8
2024-01-08T13:49:38.737Z,2.7
2024-01-08T13:50:38.721Z,2.8
2024-01-08T13:51:38.622Z,2.9
2024-01-08T13:52:38.693Z,3.1
2024-01-08T13:53:38.706Z,3.2
2024-01-08T13:54:38.678Z,3.2
2024-01-08T13:55:38.707Z,3.3
2024-01-08T13:56:38.756Z,3.2
2024-01-08T13:57:38.706Z,3.2
2024-01-08T13:58:38.717Z,3.1
2024-01-08T13:59:38.729Z,3
2024-01-08T14:00:38.711Z,3.1
2024-01-08T14:01:38.694Z,3.1
2024-01-08T14:02:38.836Z,3.1
2024-01-08T14:03:38.717Z,3.1
2024-01-08T14:04:38.743Z,2.9
2024-01-08T14:05:38.734Z,2.8
2024-01-08T14:06:38.685Z,2.7
2024-01-08T14:07:38.651Z,2.6
2024-01-08T14:08:38.707Z,2.4
2024-01-08T14:09:38.678Z,2.2
2024-01-08T14:10:38.684Z,2.1
2024-01-08T14:11:38.691Z,2.1
2024-01-08T14:12:38.703Z,2
2024-01-08T14:13:38.699Z,1.9
2024-01-08T14:14:38.679Z,1.8
2024-01-08T14:15:38.678Z,1.8
2024-01-08T14:16:38.701Z,1.8
2024-01-08T14:17:38.742Z,1.8